Time;durP1;ratioP1;P1;durP2;ratioP2;P2;SDS_P1;SDS_P2;PMS_P1;PMS_P2;Temp;Humidity;BMP_temperature;BMP_pressure;BME280_temperature;BME280_humidity;BME280_pressure;Samples;Min_cycle;Max_cycle;Signal;HPM_P1;HPM_P2
2023/10/06 00:02:10;;;;;;;8.73;3.15;;;;;;;10.20;70.13;99031.41;5049012;28;20394;-80
2023/10/06 00:04:41;;;;;;;9.52;3.33;;;;;;;10.11;70.40;99008.19;5024899;28;20653;-74
2023/10/06 00:07:08;;;;;;;6.28;3.00;;;;;;;10.24;69.97;99020.06;5002068;28;20046;-73
2023/10/06 00:09:43;;;;;;;9.27;2.70;;;;;;;10.10;70.34;98996.94;5018494;28;20048;-73
2023/10/06 00:12:16;;;;;;;7.93;3.55;;;;;;;10.28;70.33;99018.25;5028589;28;20076;-74
2023/10/06 00:14:48;;;;;;;11.63;3.58;;;;;;;10.34;70.20;99012.06;5021939;28;20040;-74
2023/10/06 00:17:19;;;;;;;5.95;3.13;;;;;;;10.16;69.93;98984.69;5014136;28;20045;-73
2023/10/06 00:19:55;;;;;;;7.50;3.60;;;;;;;10.27;70.08;98993.16;5012608;28;20503;-72
2023/10/06 00:22:26;;;;;;;9.80;3.20;;;;;;;9.89;70.18;98937.59;5030547;28;20053;-75
2023/10/06 00:24:59;;;;;;;8.87;3.37;;;;;;;10.33;70.20;98984.34;5003120;28;20369;-74
2023/10/06 00:27:30;;;;;;;6.47;3.13;;;;;;;10.39;69.99;99005.06;5033459;28;20033;-72
2023/10/06 00:30:00;;;;;;;6.90;3.67;;;;;;;10.41;70.41;98995.50;5040373;28;20046;-71
2023/10/06 00:32:27;;;;;;;8.40;3.40;;;;;;;10.44;69.93;99002.38;4993766;28;20034;-72
2023/10/06 00:34:55;;;;;;;7.95;3.30;;;;;;;10.24;70.29;98959.41;5010253;28;20041;-73
2023/10/06 00:37:22;;;;;;;8.57;3.35;;;;;;;10.49;70.39;98990.97;5033245;28;20076;-74
2023/10/06 00:39:56;;;;;;;11.60;3.67;;;;;;;10.46;70.24;98978.06;5013372;28;20033;-77
2023/10/06 00:42:26;;;;;;;7.20;3.20;;;;;;;10.55;70.29;98980.44;5032141;28;20049;-78
2023/10/06 00:44:55;;;;;;;7.57;3.00;;;;;;;10.54;69.99;98973.53;5021044;28;20068;-79
2023/10/06 00:47:22;;;;;;;7.65;3.72;;;;;;;10.59;70.09;98969.97;5013926;28;20041;-77
2023/10/06 00:49:55;;;;;;;5.78;3.03;;;;;;;10.64;69.75;98968.13;5037701;28;20071;-79
2023/10/06 00:52:21;;;;;;;5.53;3.08;;;;;;;10.63;70.12;98958.59;5033309;28;20037;-78
2023/10/06 00:54:50;;;;;;;9.10;3.60;;;;;;;10.49;70.00;98936.34;5031986;28;20044;-77
2023/10/06 00:57:24;;;;;;;8.88;3.42;;;;;;;10.68;70.29;98957.59;5011538;28;20049;-78
2023/10/06 00:59:52;;;;;;;8.85;3.42;;;;;;;10.63;70.15;98935.19;5052691;28;20047;-77
2023/10/06 01:02:18;;;;;;;7.47;3.30;;;;;;;10.76;69.88;98960.03;5032067;28;20068;-74
2023/10/06 01:05:08;;;;;;;10.43;3.80;;;;;;;10.74;69.78;98940.16;5016407;28;20053;-73
2023/10/06 01:07:36;;;;;;;12.60;3.92;;;;;;;10.54;69.64;98908.50;5023447;28;20034;-74
2023/10/06 01:10:16;;;;;;;11.53;3.90;;;;;;;10.53;69.90;98916.34;5033965;28;20041;-74
2023/10/06 01:12:51;;;;;;;7.07;3.20;;;;;;;10.62;69.58;98928.28;5017900;28;20133;-73
2023/10/06 01:15:20;;;;;;;8.35;3.20;;;;;;;10.66;70.17;98935.97;5027421;28;20045;-74
2023/10/06 01:17:47;;;;;;;7.45;3.33;;;;;;;10.65;69.78;98933.41;5025830;28;20084;-74
2023/10/06 01:20:50;;;;;;;9.90;3.78;;;;;;;10.59;69.79;98926.63;5025789;28;20096;-73
2023/10/06 01:23:20;;;;;;;9.10;3.42;;;;;;;10.57;69.80;98904.97;5026921;28;20092;-74
2023/10/06 01:25:59;;;;;;;7.20;3.58;;;;;;;10.65;69.99;98923.00;5015218;28;20060;-74
2023/10/06 01:28:25;;;;;;;11.15;3.78;;;;;;;10.61;70.14;98921.34;5008383;28;20033;-74
2023/10/06 01:30:54;;;;;;;9.63;4.03;;;;;;;10.46;70.12;98886.16;5042294;28;20041;-75
2023/10/06 01:33:28;;;;;;;8.65;3.58;;;;;;;10.61;69.99;98910.97;5026897;28;20124;-74
2023/10/06 01:35:55;;;;;;;7.22;3.55;;;;;;;10.50;69.84;98913.81;5031172;28;20040;-75
2023/10/06 01:38:23;;;;;;;9.60;3.20;;;;;;;10.43;70.31;98883.63;5029305;28;20038;-75
2023/10/06 01:40:53;;;;;;;7.90;3.47;;;;;;;10.34;70.43;98882.91;5026565;28;20053;-74
2023/10/06 01:43:23;;;;;;;7.50;3.95;;;;;;;10.30;70.32;98876.06;5005834;28;20042;-73
2023/10/06 01:45:54;;;;;;;7.85;3.33;;;;;;;10.09;70.27;98841.88;5031815;28;20148;-73
2023/10/06 01:50:50;;;;;;;10.93;3.60;;;;;;;10.18;70.66;98861.59;5017137;28;20136;-75
2023/10/06 01:53:20;;;;;;;10.85;3.90;;;;;;;10.30;70.58;98877.81;5027971;28;20057;-76
2023/10/06 01:55:50;;;;;;;6.90;3.58;;;;;;;10.19;70.98;98854.63;5028894;28;20049;-74
2023/10/06 01:58:16;;;;;;;10.93;3.80;;;;;;;10.24;71.08;98858.88;5027511;28;20052;-76
2023/10/06 02:00:48;;;;;;;7.72;3.45;;;;;;;10.22;70.97;98862.38;5023930;28;20121;-75
2023/10/06 02:03:21;;;;;;;7.15;3.10;;;;;;;10.12;71.36;98850.50;5008430;28;20557;-75
2023/10/06 02:05:47;;;;;;;7.72;3.83;;;;;;;10.16;71.15;98852.09;5011943;28;20037;-75
2023/10/06 02:08:31;;;;;;;8.93;4.03;;;;;;;10.14;71.67;98841.75;5031758;28;20038;-74
2023/10/06 02:11:01;;;;;;;8.65;3.60;;;;;;;10.03;71.46;98831.59;5031591;28;20041;-75
2023/10/06 02:13:29;;;;;;;7.75;4.05;;;;;;;10.08;71.77;98834.09;5029678;28;20033;-75
2023/10/06 02:15:58;;;;;;;12.57;3.97;;;;;;;10.03;71.95;98830.75;5009717;28;20587;-76
2023/10/06 02:18:36;;;;;;;8.55;3.90;;;;;;;9.99;72.21;98834.31;5032004;28;20057;-77
2023/10/06 02:21:14;;;;;;;13.60;4.28;;;;;;;9.92;72.26;98823.19;5019113;28;20534;-78
2023/10/06 02:23:42;;;;;;;8.15;3.80;;;;;;;9.95;72.39;98813.56;5028824;28;20041;-75
2023/10/06 02:26:13;;;;;;;8.90;3.78;;;;;;;10.01;72.72;98822.13;5020012;28;20569;-75
2023/10/06 02:28:43;;;;;;;;;;;;;;;9.99;72.84;98829.09;5035454;28;20407;-74
2023/10/06 02:31:10;;;;;;;;;;;;;;;9.97;72.67;98820.50;5032132;28;19917;-75
2023/10/06 02:33:39;;;;;;;;;;;;;;;9.97;72.67;98812.69;5030124;28;20449;-76
2023/10/06 02:36:23;;;;;;;;;;;;;;;9.97;73.18;98807.50;5028177;28;19956;-75
2023/10/06 02:38:50;;;;;;;;;;;;;;;9.98;73.29;98801.41;5045768;28;20267;-76
2023/10/06 02:41:19;;;;;;;;;;;;;;;10.02;73.26;98795.25;5022536;28;19953;-76
2023/10/06 02:43:49;;;;;;;;;;;;;;;10.02;73.11;98793.50;5038977;28;19921;-77
2023/10/06 02:46:16;;;;;;;;;;;;;;;10.05;73.21;98788.22;5021073;28;19940;-76
2023/10/06 02:48:48;;;;;;;;;;;;;;;10.09;73.22;98786.41;5033384;28;19928;-77
2023/10/06 02:51:18;;;;;;;;;;;;;;;10.08;72.97;98782.97;5046641;28;19974;-78
2023/10/06 02:53:50;;;;;;;;;;;;;;;10.09;73.11;98781.22;5021528;28;19938;-79
2023/10/06 02:56:22;;;;;;;;;;;;;;;10.11;73.24;98784.63;5046287;28;19931;-76
2023/10/06 02:58:50;;;;;;;;;;;;;;;10.14;73.12;98784.56;5027221;28;19927;-78
2023/10/06 03:01:19;;;;;;;;;;;;;;;10.16;72.97;98777.59;5050344;28;19924;-79
2023/10/06 03:03:45;;;;;;;;;;;;;;;10.17;72.94;98774.09;5048556;28;19921;-80
2023/10/06 03:06:17;;;;;;;;;;;;;;;10.21;73.10;98765.34;5032836;28;19917;-79
2023/10/06 03:08:43;;;;;;;;;;;;;;;10.23;73.17;98771.38;5049806;28;20006;-78
2023/10/06 03:11:12;;;;;;;;;;;;;;;10.28;73.19;98762.56;5036106;28;20009;-78
2023/10/06 03:13:48;;;;;;;;;;;;;;;10.29;73.08;98757.34;5033275;28;19921;-77
2023/10/06 03:16:15;;;;;;;;;;;;;;;10.28;73.10;98762.56;5050742;28;19917;-78
2023/10/06 03:18:44;;;;;;;;;;;;;;;10.21;73.02;98767.06;5020054;28;19917;-78
2023/10/06 03:21:15;;;;;;;;;;;;;;;10.17;73.04;98758.50;5023133;28;19921;-79
2023/10/06 03:23:44;;;;;;;;;;;;;;;10.14;73.57;98755.97;5037401;28;20023;-79
2023/10/06 03:26:28;;;;;;;;;;;;;;;10.17;73.45;98755.03;4996473;28;19947;-78
2023/10/06 03:29:02;;;;;;;;;;;;;;;10.20;73.44;98745.44;5049867;28;19928;-77
2023/10/06 03:32:03;;;;;;;;;;;;;;;10.20;73.19;98747.16;5016176;28;19943;-77
2023/10/06 03:34:23;;;;;;;;;;;;;;;10.20;73.20;98748.03;5033889;28;19971;-76
2023/10/06 03:36:52;;;;;;;;;;;;;;;10.25;73.87;98747.91;5033457;28;19984;-78
2023/10/06 03:39:27;;;;;;;;;;;;;;;10.28;73.33;98742.63;5020424;28;20019;-78
2023/10/06 03:41:56;;;;;;;;;;;;;;;10.27;73.73;98729.66;5020031;28;19984;-80
2023/10/06 03:44:30;;;;;;;;;;;;;;;10.24;73.37;98738.41;5049142;28;19928;-77
2023/10/06 03:47:00;;;;;;;;;;;;;;;10.24;73.45;98728.00;5001407;28;19958;-78
2023/10/06 03:49:27;;;;;;;;;;;;;;;10.28;73.55;98731.38;5038770;28;19917;-77
2023/10/06 03:51:55;;;;;;;;;;;;;;;10.29;73.19;98735.69;5003649;28;20007;-76
2023/10/06 03:54:24;;;;;;;;;;;;;;;10.30;73.50;98722.66;5034719;28;19924;-76
2023/10/06 03:56:50;;;;;;;;;;;;;;;10.34;73.41;98718.22;5033329;28;19916;-77
2023/10/06 03:59:16;;;;;;;;;;;;;;;10.38;73.29;98719.88;5026911;28;20702;-78
2023/10/06 04:01:45;;;;;;;;;;;;;;;10.42;73.41;98711.13;5031480;28;19917;-79
2023/10/06 04:04:22;;;;;;;;;;;;;;;10.45;73.29;98715.38;5035118;28;20403;-78
2023/10/06 04:06:48;;;;;;;;;;;;;;;10.48;73.59;98717.91;5029653;28;19924;-79
2023/10/06 04:09:26;;;;;;;;;;;;;;;10.52;73.51;98709.13;5023127;28;19988;-78
2023/10/06 04:11:53;;;;;;;;;;;;;;;10.56;73.39;98713.38;5019266;28;19924;-78
2023/10/06 04:14:20;;;;;;;;;;;;;;;10.58;73.56;98708.13;5056323;28;19920;-78
2023/10/06 04:16:46;;;;;;;;;;;;;;;10.59;73.70;98704.63;5007233;28;19917;-78
2023/10/06 04:19:17;;;;;;;;;;;;;;;10.60;73.31;98706.34;5036893;28;19924;-78
2023/10/06 04:21:43;;;;;;;;;;;;;;;10.61;73.53;98698.47;5033467;28;20387;-73
2023/10/06 04:24:13;;;;;;;;;;;;;;;10.61;73.54;98689.84;5010994;28;19932;-73
2023/10/06 04:26:42;;;;;;;;;;;;;;;10.61;73.71;98697.63;5027079;28;19925;-74
2023/10/06 04:29:08;;;;;;;;;;;;;;;10.65;73.34;98692.31;5029245;28;19939;-74
2023/10/06 04:31:36;;;;;;;;;;;;;;;10.69;73.72;98690.50;5027211;28;19983;-74
2023/10/06 04:34:02;;;;;;;;;;;;;;;10.70;73.33;98679.19;5011602;28;19924;-74
2023/10/06 04:36:28;;;;;;;;;;;;;;;10.74;73.55;98685.16;5030627;28;19942;-73
2023/10/06 04:38:54;;;;;;;;;;;;;;;10.72;73.36;98684.34;5011153;28;20360;-74
2023/10/06 04:41:20;;;;;;;;;;;;;;;10.73;73.53;98681.69;5032318;28;20482;-74
2023/10/06 04:43:51;;;;;;;;;;;;;;;10.76;73.46;98678.16;5046555;28;19928;-77
2023/10/06 04:46:20;;;;;;;;;;;;;;;10.76;73.34;98668.59;5033572;28;19921;-76
2023/10/06 04:48:48;;;;;;;;;;;;;;;10.77;73.46;98678.09;5030895;28;19924;-75
2023/10/06 04:51:14;;;;;;;;;;;;;;;10.77;73.28;98679.88;5034241;28;19948;-75
2023/10/06 04:53:40;;;;;;;;;;;;;;;10.78;73.19;98682.41;5029330;28;20337;-73
2023/10/06 04:56:10;;;;;;;;;;;;;;;10.85;73.41;98672.69;5031912;28;19917;-73
2023/10/06 04:58:39;;;;;;;;;;;;;;;10.93;73.30;98670.72;5029423;28;21018;-77
2023/10/06 05:01:07;;;;;;;;;;;;;;;11.16;73.39;98664.00;5017998;28;19920;-76
2023/10/06 05:04:08;;;;;;;;;;;;;;;11.57;72.67;98654.09;5012213;28;19917;-76
2023/10/06 05:06:25;;;;;;;;;;;;;;;11.72;72.33;98647.53;5025298;28;19921;-78
2023/10/06 05:08:56;;;;;;;;;;;;;;;11.56;72.00;98649.78;5029404;28;19983;-78
2023/10/06 05:11:24;;;;;;;;;;;;;;;11.62;72.42;98647.88;5027684;28;20379;-75
2023/10/06 05:13:52;;;;;;;;;;;;;;;11.79;72.19;98642.97;5033197;28;19990;-77
2023/10/06 05:16:22;;;;;;;;;;;;;;;12.47;72.21;98645.09;5027186;28;19921;-75
2023/10/06 05:18:48;;;;;;;;;;;;;;;13.40;72.09;98636.47;5028330;28;21478;-75
2023/10/06 05:21:15;;;;;;;;;;;;;;;14.59;72.08;98636.84;5026492;28;19917;-73
2023/10/06 05:23:41;;;;;;;;;;;;;;;16.40;70.72;98624.88;5017372;28;19921;-75
2023/10/06 05:26:10;;;;;;;;;;;;;;;17.74;68.89;98621.22;5002141;28;20023;-79
2023/10/06 05:28:39;;;;;;;;;;;;;;;17.63;66.24;98610.44;5035568;28;20027;-81
2023/10/06 05:31:07;;;;;;;;;;;;;;;16.83;64.29;98619.16;5008006;28;19952;-83
2023/10/06 05:33:36;;;;;;;;;;;;;;;15.98;63.77;98620.88;5032081;28;20059;-70
2023/10/06 05:38:55;;;;;;;;;;;;;;;14.80;64.63;98631.59;5031642;28;19916;-70
2023/10/06 05:41:34;;;;;;;;;;;;;;;14.48;65.16;98636.47;5033491;28;19924;-67
2023/10/06 05:44:06;;;;;;;;;;;;;;;14.32;65.17;98617.97;5030473;28;19924;-71
2023/10/06 05:46:31;;;;;;;;;;;;;;;14.16;65.21;98617.75;5021384;28;19994;-71
2023/10/06 05:49:00;;;;;;;;;;;;;;;14.02;65.39;98610.47;5036490;28;20031;-70
2023/10/06 05:51:26;;;;;;;;;;;;;;;14.03;65.57;98606.97;5037224;28;19917;-70
2023/10/06 05:53:52;;;;;;;;;;;;;;;14.25;65.90;98616.50;5038223;28;19979;-70
2023/10/06 05:56:26;;;;;;;;;;;;;;;14.39;65.52;98608.06;5034218;28;19927;-72
2023/10/06 05:58:53;;;;;;;;;;;;;;;14.56;64.83;98607.34;5038604;28;19943;-70
2023/10/06 06:01:20;;;;;;;;;;;;;;;14.58;64.79;98608.13;5022355;28;19963;-70
2023/10/06 06:03:46;;;;;;;;;;;;;;;14.55;64.46;98601.25;5035067;28;19999;-71
2023/10/06 06:06:15;;;;;;;;;;;;;;;14.58;64.61;98602.88;5080159;22;19924;-65
2023/10/06 06:08:47;;;;;;;;;;;;;;;14.67;64.35;98599.88;5066799;28;19916;-70
2023/10/06 06:11:13;;;;;;;;;;;;;;;14.61;63.70;98594.91;5078989;28;20023;-71
2023/10/06 06:13:40;;;;;;;;;;;;;;;14.55;63.58;98587.31;5067542;28;20007;-69
2023/10/06 06:16:10;;;;;;;;;;;;;;;14.37;63.26;98592.44;5081781;28;19958;-69
2023/10/06 06:18:42;;;;;;;;;;;;;;;14.26;63.20;98589.44;5097678;28;20305;-69
2023/10/06 06:21:12;;;;;;;;;;;;;;;14.42;63.72;98590.47;5081706;28;19938;-70
2023/10/06 06:23:49;;;;;;;;;;;;;;;14.61;63.82;98580.03;5061232;28;19928;-68
2023/10/06 06:26:18;;;;;;;;;;;;;;;14.83;63.26;98571.22;5087356;28;19915;-71
2023/10/06 06:28:46;;;;;;;;;;;;;;;14.76;62.29;98569.84;5079563;28;19916;-69
2023/10/06 06:31:20;;;;;;;;;;;;;;;14.61;62.37;98571.34;5074672;28;19916;-67
2023/10/06 06:33:55;;;;;;;;;;;;;;;14.45;62.13;98565.94;5077761;28;19916;-68
2023/10/06 06:36:38;;;;;;;;;;;;;;;14.57;62.37;98564.53;5070243;28;19923;-71
2023/10/06 06:39:03;;;;;;;;;;;;;;;14.39;62.54;98568.81;5079949;28;19922;-70
2023/10/06 06:41:33;;;;;;;;;;;;;;;14.14;61.34;98567.25;5078377;28;19975;-71
2023/10/06 06:44:01;;;;;;;;;;;;;;;13.80;62.05;98560.88;5100088;28;19924;-68
2023/10/06 06:46:31;;;;;;;;;;;;;;;13.51;61.68;98555.06;5097265;28;19975;-69
2023/10/06 06:49:03;;;;;;;;;;;;;;;13.35;62.32;98558.28;5062644;28;19921;-68
2023/10/06 06:51:30;;;;;;;;;;;;;;;13.24;63.00;98550.88;5096329;28;20138;-70
2023/10/06 06:53:56;;;;;;;;;;;;;;;13.37;63.32;98558.19;5083354;28;19916;-71
2023/10/06 06:56:28;;;;;;;;;;;;;;;13.42;63.17;98558.06;5086823;28;20007;-68
2023/10/06 06:58:59;;;;;;;;;;;;;;;13.43;63.12;98551.94;5093043;28;19916;-70
2023/10/06 07:01:27;;;;;;;;;;;;;;;13.48;62.99;98545.59;5060766;28;19916;-70
2023/10/06 07:03:53;;;;;;;;;;;;;;;13.60;62.83;98552.09;5076681;28;19956;-70
2023/10/06 07:06:21;;;;;;;;;;;;;;;13.75;63.10;98541.91;5063407;28;19927;-70
2023/10/06 07:08:47;;;;;;;;;;;;;;;13.78;62.50;98534.81;5076169;28;19916;-71
2023/10/06 07:11:13;;;;;;;;;;;;;;;13.84;62.76;98542.38;5078770;28;19900;-70
2023/10/06 07:13:39;;;;;;;;;;;;;;;13.82;62.53;98512.81;5080796;28;19971;-69
2023/10/06 07:16:09;;;;;;;;;;;;;;;14.10;62.22;98531.72;5077753;28;20330;-70
2023/10/06 07:18:37;;;;;;;;;;;;;;;14.15;61.98;98519.25;5057853;28;19982;-70
2023/10/06 07:21:13;;;;;;;;;;;;;;;14.20;61.87;98521.69;5077964;28;19916;-70
2023/10/06 07:23:42;;;;;;;;;;;;;;;14.69;62.12;98503.78;5067769;28;20015;-71
2023/10/06 07:26:09;;;;;;;;;;;;;;;15.31;61.55;98498.25;5078479;28;19955;-72
2023/10/06 07:28:51;;;;;;;;;;;;;;;15.63;60.88;98501.03;5091654;28;19923;-72
2023/10/06 07:31:33;;;;;;;;;;;;;;;15.40;59.49;98496.09;5079661;28;20623;-72
2023/10/06 07:33:59;;;;;;;;;;;;;;;15.13;59.90;98491.28;5066092;28;19916;-74
2023/10/06 07:36:30;;;;;;;;;;;;;;;14.98;59.64;98492.88;5079507;28;19916;-68
2023/10/06 07:38:59;;;;;;;;;;;;;;;14.72;59.54;98489.72;5076279;28;19942;-70
2023/10/06 07:41:25;;;;;;;;;;;;;;;14.48;59.52;98489.03;5080579;28;19956;-73
2023/10/06 07:43:54;;;;;;;;;;;;;;;14.36;60.13;98480.84;5078461;28;19985;-72
2023/10/06 07:46:23;;;;;;;;;;;;;;;14.39;60.34;98485.94;5082065;28;19916;-68
2023/10/06 07:48:50;;;;;;;;;;;;;;;14.60;60.06;98483.25;5084483;28;19947;-66
2023/10/06 07:51:16;;;;;;;;;;;;;;;15.12;60.25;98474.72;5068669;28;19916;-70
2023/10/06 07:53:43;;;;;;;;;;;;;;;15.77;59.52;98489.03;5065604;28;19916;-71
2023/10/06 07:56:09;;;;;;;;;;;;;;;15.88;58.52;98468.34;5068871;28;19966;-66
2023/10/06 07:58:38;;;;;;;;;;;;;;;15.91;58.36;98457.69;5067161;28;20378;-71
2023/10/06 08:01:07;;;;;;;;;;;;;;;15.76;57.65;98466.34;5067036;28;19998;-70
2023/10/06 08:03:41;;;;;;;;;;;;;;;15.44;57.42;98467.06;5060021;28;19997;-71
2023/10/06 08:06:13;;;;;;;;;;;;;;;15.28;57.45;98459.09;5065903;28;19920;-70
2023/10/06 08:08:39;;;;;;;;;;;;;;;15.29;58.01;98465.19;5046120;28;19971;-71
2023/10/06 08:11:06;;;;;;;;;;;;;;;15.20;57.82;98429.81;5067649;28;19951;-74
2023/10/06 08:13:33;;;;;;;;;;;;;;;15.52;57.71;98449.16;5065218;28;19976;-73
2023/10/06 08:15:59;;;;;;;;;;;;;;;15.42;57.33;98449.69;5069931;28;19938;-70
2023/10/06 08:18:28;;;;;;;;;;;;;;;15.20;57.49;98449.00;5064097;28;19924;-69
2023/10/06 08:20:54;;;;;;;;;;;;;;;15.11;57.59;98446.00;5065803;28;19969;-70
2023/10/06 08:23:20;;;;;;;;;;;;;;;14.95;57.55;98444.09;5066869;28;20015;-67
2023/10/06 08:25:46;;;;;;;;;;;;;;;14.63;57.39;98450.84;5061434;28;20010;-68
2023/10/06 08:28:12;;;;;;;;;;;;;;;14.35;57.66;98447.75;5046987;28;20378;-69
2023/10/06 08:30:38;;;;;;;;;;;;;;;14.29;58.52;98450.63;5062906;28;20415;-71
2023/10/06 08:33:09;;;;;;;;;;;;;;;14.27;58.94;98448.09;5069938;28;19916;-69
2023/10/06 08:35:36;;;;;;;;;;;;;;;14.22;58.91;98446.63;5065260;28;19934;-70
2023/10/06 08:38:02;;;;;;;;;;;;;;;14.34;59.41;98453.91;5063238;28;19916;-70
2023/10/06 08:40:30;;;;;;;;;;;;;;;14.41;59.61;98449.22;5069253;28;19923;-70
2023/10/06 08:42:56;;;;;;;;;;;;;;;14.52;59.62;98438.25;5082076;28;20029;-71
2023/10/06 08:45:24;;;;;;;;;;;;;;;14.51;58.98;98437.44;5065245;28;20014;-71
2023/10/06 08:47:53;;;;;;;;;;;;;;;14.52;59.25;98439.13;5048495;28;19920;-73
2023/10/06 08:50:23;;;;;;;;;;;;;;;14.42;58.96;98433.47;5062263;28;19916;-70
2023/10/06 08:52:52;;;;;;;;;;;;;;;14.33;59.02;98433.88;5084417;28;20377;-74
2023/10/06 08:55:22;;;;;;;;;;;;;;;14.29;59.07;98432.31;5063050;28;19966;-73
2023/10/06 08:57:51;;;;;;;;;;;;;;;14.29;58.98;98430.56;5064443;28;19955;-71
2023/10/06 09:00:22;;;;;;;;;;;;;;;14.21;58.95;98426.59;5067223;28;19970;-75
2023/10/06 09:02:48;;;;;;;;;;;;;;;14.19;59.23;98434.50;5047100;28;19920;-70
2023/10/06 09:05:15;;;;;;;;;;;;;;;14.22;59.33;98433.53;5065185;28;20011;-72
2023/10/06 09:08:19;;;;;;;;;;;;;;;14.21;59.24;98427.44;5046406;28;19962;-72
2023/10/06 09:10:49;;;;;;;;;;;;;;;14.29;58.95;98424.47;5054370;28;19983;-71
2023/10/06 09:13:18;;;;;;;;;;;;;;;14.32;59.02;98426.94;5066442;28;19916;-70
2023/10/06 09:15:59;;;;;;;;;;;;;;;14.30;59.10;98423.56;5064548;28;20019;-71
2023/10/06 09:18:29;;;;;;;;;;;;;;;14.22;58.61;98430.94;5037476;28;19924;-71
2023/10/06 09:20:56;;;;;;;;;;;;;;;14.14;58.72;98426.00;5069173;28;19923;-70
2023/10/06 09:23:30;;;;;;;;;;;;;;;14.13;58.99;98425.19;5066549;28;19927;-70
2023/10/06 09:25:56;;;;;;;;;;;;;;;14.26;59.08;98432.47;5078803;28;20066;-72
2023/10/06 09:28:21;;;;;;;;;;;;;;;14.83;59.28;98426.38;5062446;28;20263;-72
2023/10/06 09:30:50;;;;;;;;;;;;;;;15.87;59.52;98419.44;5064145;28;19916;-72
2023/10/06 09:33:17;;;;;;;;;;;;;;;17.60;59.76;98408.97;5064550;28;19917;-71
2023/10/06 09:35:45;;;;;;;;;;;;;;;18.81;57.96;98403.28;5065075;28;19969;-71
2023/10/06 09:38:13;;;;;;;;;;;;;;;19.52;54.43;98389.84;5064133;28;20011;-71
2023/10/06 09:40:43;;;;;;;;;;;;;;;19.91;54.03;98385.44;5065744;28;20012;-73
2023/10/06 09:43:12;;;;;;;;;;;;;;;21.11;52.23;98383.03;5069182;28;19920;-74
2023/10/06 09:45:40;;;;;;;;;;;;;;;21.85;50.65;98373.94;5063121;28;19932;-72
2023/10/06 09:48:08;;;;;;;;;;;;;;;21.89;48.81;98378.03;5059449;28;20404;-72
2023/10/06 09:50:37;;;;;;;;;;;;;;;21.58;48.78;98377.72;5046631;28;19982;-70
2023/10/06 09:53:04;;;;;;;;;;;;;;;20.69;48.01;98380.78;5078538;28;19916;-74
2023/10/06 09:55:31;;;;;;;;;;;;;;;20.03;48.11;98378.44;5063162;28;19920;-72
2023/10/06 09:57:56;;;;;;;;;;;;;;;19.47;49.16;98381.41;5068773;28;19916;-74
2023/10/06 10:00:24;;;;;;;;;;;;;;;18.90;49.64;98386.88;5050316;28;20400;-72
2023/10/06 10:02:50;;;;;;;;;;;;;;;18.64;50.10;98378.03;5065880;28;19924;-71
2023/10/06 10:05:20;;;;;;;;;;;;;;;18.57;51.05;98382.88;5060574;28;20304;-70
2023/10/06 10:07:48;;;;;;;;;;;;;;;18.67;49.81;98368.13;5065901;28;20062;-70
2023/10/06 10:10:14;;;;;;;;;;;;;;;18.43;50.09;98377.63;5048191;28;19916;-71
2023/10/06 10:12:58;;;;;;;;;;;;;;;18.13;50.38;98376.84;5064444;28;19921;-70
2023/10/06 10:15:28;;;;;;;;;;;;;;;17.96;50.57;98371.75;5083445;28;19916;-70
2023/10/06 10:18:04;;;;;;;;;;;;;;;17.81;50.89;98369.13;5064477;28;19923;-70
2023/10/06 10:20:32;;;;;;;;;;;;;;;17.94;50.67;98387.66;5065601;28;20439;-75
2023/10/06 10:23:00;;;;;;;;;;;;;;;17.79;50.12;98378.03;5062874;28;20639;-74
2023/10/06 10:25:29;;;;;;;;;;;;;;;17.70;51.27;98368.94;5066776;28;19923;-70
2023/10/06 10:28:15;;;;;;;;;;;;;;;17.95;50.92;98372.69;5063967;28;19916;-70
2023/10/06 10:30:49;;;;;;;;;;;;;;;17.84;51.38;98363.69;5065358;28;19931;-70
2023/10/06 10:33:25;;;;;;;;;;;;;;;18.01;50.65;98367.09;5065907;28;19962;-67
2023/10/06 10:36:18;;;;;;;;;;;;;;;17.58;50.48;98362.63;5050597;28;20295;-67
2023/10/06 10:38:45;;;;;;;;;;;;;;;17.15;51.16;98366.91;5048857;28;20106;-70
2023/10/06 10:41:11;;;;;;;;;;;;;;;16.92;51.27;98370.84;5062756;28;19920;-71
2023/10/06 10:43:48;;;;;;;;;;;;;;;16.63;51.76;98365.47;5065859;28;19920;-70
2023/10/06 10:46:30;;;;;;;;;;;;;;;16.38;52.17;98368.63;5050004;28;20402;-70
2023/10/06 10:48:58;;;;;;;;;;;;;;;16.23;52.50;98363.28;5083673;28;19916;-70
2023/10/06 10:51:24;;;;;;;;;;;;;;;16.11;52.83;98369.22;5083584;28;19956;-70
2023/10/06 10:53:51;;;;;;;;;;;;;;;15.93;52.91;98371.91;5070709;28;20385;-71
2023/10/06 10:56:29;;;;;;;;;;;;;;;15.71;53.11;98366.09;5068177;28;19916;-70
2023/10/06 10:58:55;;;;;;;;;;;;;;;15.49;53.28;98373.28;5067874;28;19916;-71
2023/10/06 11:01:22;;;;;;;;;;;;;;;15.44;53.85;98369.22;5067380;28;19939;-70
2023/10/06 11:04:08;;;;;;;;;;;;;;;15.13;54.09;98340.19;5082960;28;19920;-70
2023/10/06 11:06:34;;;;;;;;;;;;;;;15.21;54.46;98372.09;5053346;28;19942;-71
2023/10/06 11:09:12;;;;;;;;;;;;;;;15.20;54.57;98364.31;5068743;28;19920;-69
2023/10/06 11:11:41;;;;;;;;;;;;;;;15.17;54.77;98377.56;5073925;28;20421;-70
2023/10/06 11:14:07;;;;;;;;;;;;;;;15.08;55.13;98372.78;5080230;28;19923;-70
2023/10/06 11:16:33;;;;;;;;;;;;;;;15.00;55.35;98367.94;5050255;28;19916;-70
2023/10/06 11:18:59;;;;;;;;;;;;;;;14.86;54.98;98382.53;5049713;28;20030;-70
2023/10/06 11:21:25;;;;;;;;;;;;;;;14.66;55.56;98388.75;5074632;28;19916;-70
2023/10/06 11:23:50;;;;;;;;;;;;;;;14.45;55.76;98390.59;5062822;28;19928;-69
2023/10/06 11:26:30;;;;;;;;;;;;;;;14.34;56.30;98378.03;5060064;28;19916;-70
2023/10/06 11:28:56;;;;;;;;;;;;;;;14.18;56.56;98382.28;5065605;28;19916;-69
2023/10/06 11:31:25;;;;;;;;;;;;;;;14.03;56.75;98387.28;5060572;28;19973;-68
2023/10/06 11:33:51;;;;;;;;;;;;;;;13.81;57.19;98387.41;5080259;28;20424;-71
2023/10/06 11:36:17;;;;;;;;;;;;;;;13.66;57.95;98391.53;5063555;28;20003;-70
2023/10/06 11:38:43;;;;;;;;;;;;;;;13.48;58.12;98399.28;5067983;28;19920;-70
2023/10/06 11:41:09;;;;;;;;;;;;;;;13.37;58.75;98404.06;5051912;28;20382;-72
2023/10/06 11:43:34;;;;;;;;;;;;;;;13.31;59.19;98399.13;5071125;28;19931;-73
2023/10/06 11:46:05;;;;;;;;;;;;;;;13.22;59.39;98403.81;5065492;28;19946;-72
2023/10/06 11:48:34;;;;;;;;;;;;;;;13.12;60.03;98407.72;5068472;28;19920;-73
2023/10/06 11:51:06;;;;;;;;;;;;;;;13.06;60.26;98398.38;5064376;28;19920;-72
2023/10/06 11:53:33;;;;;;;;;;;;;;;12.99;60.36;98406.53;5035865;28;19916;-72
2023/10/06 11:56:19;;;;;;;;;;;;;;;12.92;60.89;98398.94;5063871;28;20374;-70
2023/10/06 11:58:45;;;;;;;;;;;;;;;12.98;61.48;98404.81;5051108;28;19923;-71
2023/10/06 12:01:32;;;;;;;;;;;;;;;13.05;61.80;98409.72;5069168;28;19919;-73
2023/10/06 12:04:00;;;;;;;;;;;;;;;13.09;61.85;98400.84;5072077;28;19927;-70
2023/10/06 12:06:38;;;;;;;;;;;;;;;13.16;62.03;98414.50;5069259;28;19932;-72
2023/10/06 12:09:08;;;;;;;;;;;;;;;13.14;62.03;98405.88;5067368;28;20344;-71
2023/10/06 12:11:33;;;;;;;;;;;;;;;13.01;62.13;98408.19;5079996;28;19916;-72
2023/10/06 12:13:59;;;;;;;;;;;;;;;12.89;62.34;98411.25;5067624;28;20347;-72
2023/10/06 12:16:25;;;;;;;;;;;;;;;12.78;62.62;98417.78;5053286;28;20314;-71
2023/10/06 12:18:51;;;;;;;;;;;;;;;12.76;62.97;98423.97;5065947;28;19916;-78
2023/10/06 12:21:17;;;;;;;;;;;;;;;12.83;63.75;98420.22;5069379;28;19923;-74
2023/10/06 12:23:46;;;;;;;;;;;;;;;12.93;63.30;98424.13;5069747;28;20010;-75
2023/10/06 12:26:13;;;;;;;;;;;;;;;13.06;64.06;98424.47;5068504;28;19920;-70
2023/10/06 12:28:39;;;;;;;;;;;;;;;13.15;63.53;98425.84;5069896;28;19920;-69
2023/10/06 12:31:14;;;;;;;;;;;;;;;13.17;63.98;98431.03;5082761;28;19940;-70
2023/10/06 12:33:39;;;;;;;;;;;;;;;13.11;63.73;98438.22;5050341;28;20447;-70
2023/10/06 12:36:08;;;;;;;;;;;;;;;13.03;63.72;98434.22;5063605;28;19990;-71
2023/10/06 12:38:35;;;;;;;;;;;;;;;12.98;64.15;98436.16;5035573;28;19916;-71
2023/10/06 12:41:01;;;;;;;;;;;;;;;12.89;64.00;98445.22;5062841;28;20595;-73
2023/10/06 12:43:26;;;;;;;;;;;;;;;12.84;64.22;98440.19;5069144;28;20011;-68
2023/10/06 12:45:52;;;;;;;;;;;;;;;12.77;64.49;98444.78;5075934;28;19916;-70
2023/10/06 12:48:20;;;;;;;;;;;;;;;12.73;64.75;98452.78;5061545;28;19973;-69
2023/10/06 12:50:47;;;;;;;;;;;;;;;12.68;64.73;98457.34;5062258;28;20091;-71
2023/10/06 12:53:13;;;;;;;;;;;;;;;12.65;64.73;98461.78;5063304;28;20317;-72